createdAt,value
2018-07-16T00:00:03.128Z,17.91
2018-07-16T00:02:32.130Z,17.90
2018-07-16T00:05:00.641Z,17.96
2018-07-16T00:07:29.469Z,18.03
2018-07-16T00:09:57.953Z,18.02
2018-07-16T00:12:26.508Z,18.00
2018-07-16T00:14:55.012Z,17.93
2018-07-16T00:17:23.539Z,17.79
2018-07-16T00:19:52.075Z,17.74
2018-07-16T00:22:20.563Z,17.75
2018-07-16T00:24:49.029Z,17.71
2018-07-16T00:27:17.670Z,17.63
2018-07-16T00:29:46.452Z,17.58
2018-07-16T00:32:14.986Z,17.48
2018-07-16T00:34:43.695Z,17.46
2018-07-16T00:37:12.282Z,17.40
2018-07-16T00:39:40.863Z,17.33
2018-07-16T00:42:09.311Z,17.36
2018-07-16T00:44:37.861Z,17.33
2018-07-16T00:47:06.738Z,17.22
2018-07-16T00:49:35.410Z,17.14
2018-07-16T00:52:03.930Z,16.97
2018-07-16T00:54:32.541Z,16.98
2018-07-16T00:57:01.440Z,16.89
2018-07-16T00:59:30.064Z,16.81
2018-07-16T01:01:58.639Z,16.83
2018-07-16T01:04:27.193Z,16.77
2018-07-16T01:06:55.703Z,16.75
2018-07-16T01:09:24.146Z,16.74
2018-07-16T01:11:52.678Z,16.64
2018-07-16T01:14:21.297Z,16.59
2018-07-16T01:16:49.883Z,16.53
2018-07-16T01:19:18.454Z,16.53
2018-07-16T01:21:46.975Z,16.65
2018-07-16T01:24:15.469Z,16.62
2018-07-16T01:26:43.946Z,16.58
2018-07-16T01:29:12.498Z,16.51
2018-07-16T01:31:41.003Z,16.45
2018-07-16T01:34:09.588Z,16.45
2018-07-16T01:36:38.084Z,16.41
2018-07-16T01:39:06.738Z,16.34
2018-07-16T01:41:36.050Z,16.30
2018-07-16T01:44:04.561Z,16.27
2018-07-16T01:46:33.011Z,16.24
2018-07-16T01:49:01.516Z,16.23
2018-07-16T01:51:30.124Z,16.21
2018-07-16T01:53:58.675Z,16.23
2018-07-16T02:02:43.226Z,15.99
2018-07-16T02:05:12.034Z,15.93
2018-07-16T02:07:40.523Z,15.98
2018-07-16T02:10:09.006Z,15.92
2018-07-16T02:12:37.478Z,15.93
2018-07-16T02:15:06.178Z,15.91
2018-07-16T02:17:35.038Z,15.93
2018-07-16T02:20:05.758Z,16.01
2018-07-16T02:22:34.422Z,16.06
2018-07-16T02:25:02.874Z,16.12
2018-07-16T02:27:31.654Z,16.16
2018-07-16T02:30:00.160Z,16.13
2018-07-16T02:32:28.759Z,16.13
2018-07-16T02:34:57.236Z,16.13
2018-07-16T02:37:25.682Z,16.16
2018-07-16T02:39:54.323Z,16.06
2018-07-16T02:42:22.827Z,16.02
2018-07-16T02:44:51.364Z,15.95
2018-07-16T02:47:19.861Z,15.90
2018-07-16T02:49:48.451Z,15.90
2018-07-16T02:52:16.971Z,15.85
2018-07-16T02:54:45.496Z,15.83
2018-07-16T02:57:14.087Z,15.79
2018-07-16T02:59:42.631Z,15.76
2018-07-16T03:02:11.482Z,15.76
2018-07-16T03:04:40.372Z,15.73
2018-07-16T03:07:08.912Z,15.70
2018-07-16T03:09:38.519Z,15.75
2018-07-16T03:12:07.382Z,15.73
2018-07-16T03:14:35.966Z,15.73
2018-07-16T03:17:04.467Z,15.75
2018-07-16T03:19:32.962Z,15.79
2018-07-16T03:22:01.872Z,15.74
2018-07-16T03:24:30.466Z,15.74
2018-07-16T03:26:59.031Z,15.76
2018-07-16T03:29:28.279Z,15.79
2018-07-16T03:32:01.060Z,15.74
2018-07-16T03:34:29.611Z,15.74
2018-07-16T03:36:58.139Z,15.70
2018-07-16T03:39:26.715Z,15.68
2018-07-16T03:41:55.195Z,15.62
2018-07-16T03:44:23.735Z,15.62
2018-07-16T03:46:52.254Z,15.68
2018-07-16T03:49:20.862Z,15.67
2018-07-16T03:51:49.366Z,15.67
2018-07-16T03:54:17.866Z,15.64
2018-07-16T03:56:46.971Z,15.60
2018-07-16T03:59:15.547Z,15.58
2018-07-16T04:01:44.100Z,15.50
2018-07-16T04:04:12.726Z,15.47
2018-07-16T04:06:41.288Z,15.52
2018-07-16T04:09:09.778Z,15.53
2018-07-16T04:11:38.659Z,15.57
2018-07-16T04:14:07.264Z,15.52
2018-07-16T04:16:35.810Z,15.52
2018-07-16T04:19:04.414Z,15.58
2018-07-16T04:21:32.961Z,15.60
2018-07-16T04:24:01.492Z,15.65
2018-07-16T04:26:30.056Z,15.67
2018-07-16T04:28:58.503Z,15.73
2018-07-16T04:31:27.022Z,15.78
2018-07-16T04:33:55.630Z,15.82
2018-07-16T04:36:24.232Z,15.88
2018-07-16T04:38:52.815Z,15.93
2018-07-16T04:41:21.344Z,16.05
2018-07-16T04:43:50.128Z,16.17
2018-07-16T04:46:18.623Z,16.27
2018-07-16T04:48:47.080Z,16.30
2018-07-16T04:51:16.222Z,16.37
2018-07-16T04:53:44.915Z,16.39
2018-07-16T04:56:13.524Z,16.40
2018-07-16T04:58:42.222Z,16.43
2018-07-16T05:01:10.974Z,16.52
2018-07-16T05:03:39.491Z,16.62
2018-07-16T05:06:08.016Z,16.68
2018-07-16T05:08:36.460Z,16.75
2018-07-16T05:11:04.974Z,16.79
2018-07-16T05:13:35.710Z,16.89
2018-07-16T05:16:04.315Z,17.01
2018-07-16T05:18:33.003Z,17.16
2018-07-16T05:21:01.287Z,17.28
2018-07-16T05:23:29.859Z,17.41
2018-07-16T05:25:58.346Z,17.51
2018-07-16T05:28:26.847Z,17.62
2018-07-16T05:30:55.523Z,17.68
2018-07-16T05:33:24.129Z,17.79
2018-07-16T05:35:52.693Z,17.78
2018-07-16T05:38:21.282Z,17.86
2018-07-16T05:40:49.786Z,17.93
2018-07-16T05:43:18.346Z,18.04
2018-07-16T05:45:47.207Z,18.12
2018-07-16T05:48:16.048Z,18.16
2018-07-16T05:50:44.534Z,18.24
2018-07-16T05:53:13.022Z,18.32
2018-07-16T05:55:41.519Z,18.37
2018-07-16T05:58:10.072Z,18.44
2018-07-16T06:00:39.121Z,18.51
2018-07-16T06:03:07.891Z,18.50
2018-07-16T06:05:36.383Z,18.56
2018-07-16T06:08:04.954Z,18.62
2018-07-16T06:10:33.559Z,18.70
2018-07-16T06:13:02.110Z,18.85
2018-07-16T06:15:30.689Z,18.99
2018-07-16T06:17:59.180Z,19.04
2018-07-16T06:20:28.217Z,19.05
2018-07-16T06:22:57.382Z,19.15
2018-07-16T06:25:25.844Z,19.21
2018-07-16T06:27:54.635Z,19.27
2018-07-16T06:30:23.143Z,19.30
2018-07-16T06:32:51.714Z,19.38
2018-07-16T06:35:20.175Z,19.45
2018-07-16T06:37:48.717Z,19.56
2018-07-16T06:40:17.337Z,19.62
2018-07-16T06:42:45.715Z,19.77
2018-07-16T06:45:14.188Z,19.94
2018-07-16T06:47:42.857Z,20.07
2018-07-16T06:50:11.259Z,20.19
2018-07-16T06:52:39.727Z,20.24
2018-07-16T06:55:08.451Z,20.27
2018-07-16T06:57:37.058Z,20.37
2018-07-16T07:00:06.047Z,20.45
2018-07-16T07:02:34.615Z,20.53
2018-07-16T07:05:03.140Z,20.61
2018-07-16T07:07:31.659Z,20.66
2018-07-16T07:10:00.108Z,20.79
2018-07-16T07:12:28.570Z,20.81
2018-07-16T07:14:57.162Z,20.82
2018-07-16T07:17:25.726Z,20.78
2018-07-16T07:19:54.303Z,20.83
2018-07-16T07:22:22.827Z,20.85
2018-07-16T07:24:51.390Z,21.00
2018-07-16T07:27:19.899Z,21.12
2018-07-16T07:29:48.399Z,21.23
2018-07-16T07:32:16.880Z,21.28
2018-07-16T07:34:45.393Z,21.30
2018-07-16T07:37:14.170Z,21.43
2018-07-16T07:39:42.770Z,21.55
2018-07-16T07:42:11.279Z,21.47
2018-07-16T07:44:39.817Z,21.54
2018-07-16T07:47:08.286Z,21.56
2018-07-16T07:49:36.775Z,21.54
2018-07-16T07:52:05.263Z,21.71
2018-07-16T07:54:34.071Z,21.85
2018-07-16T07:57:02.483Z,21.80
2018-07-16T07:59:30.970Z,21.85
2018-07-16T08:01:59.504Z,21.96
2018-07-16T08:04:28.019Z,22.17
2018-07-16T08:07:01.836Z,22.32
2018-07-16T08:09:30.399Z,22.38
2018-07-16T08:11:59.151Z,22.47
2018-07-16T08:14:27.759Z,22.47
2018-07-16T08:16:56.399Z,22.53
2018-07-16T08:19:24.914Z,22.65
2018-07-16T08:21:53.511Z,22.61
2018-07-16T08:24:22.206Z,22.70
2018-07-16T08:26:50.775Z,22.90
2018-07-16T08:29:19.207Z,23.10
2018-07-16T08:31:47.854Z,23.21
2018-07-16T08:34:16.371Z,23.37
2018-07-16T08:36:44.876Z,23.51
2018-07-16T08:39:13.573Z,23.58
2018-07-16T08:41:42.218Z,23.67
2018-07-16T08:44:10.730Z,23.70
2018-07-16T08:46:39.355Z,23.84
2018-07-16T08:49:07.922Z,24.00
2018-07-16T08:51:36.403Z,24.21
2018-07-16T08:54:04.865Z,24.37
2018-07-16T08:56:33.530Z,24.59
2018-07-16T08:59:02.661Z,24.74
2018-07-16T09:01:35.108Z,24.87
2018-07-16T09:04:03.610Z,24.99
2018-07-16T09:06:32.191Z,25.24
2018-07-16T09:09:00.838Z,25.25
2018-07-16T09:11:29.391Z,25.40
2018-07-16T09:13:57.913Z,25.59
2018-07-16T09:16:26.830Z,25.78
2018-07-16T09:18:55.303Z,25.90
2018-07-16T09:21:23.788Z,26.11
2018-07-16T09:23:52.254Z,26.29
2018-07-16T09:26:20.871Z,26.48
2018-07-16T09:28:49.470Z,26.73
2018-07-16T09:31:17.992Z,26.49
2018-07-16T09:33:46.495Z,26.73
2018-07-16T09:36:15.371Z,27.00
2018-07-16T09:38:43.914Z,27.11
2018-07-16T09:41:12.466Z,27.53
2018-07-16T09:43:40.980Z,27.61
2018-07-16T09:46:09.544Z,27.79
2018-07-16T09:48:38.998Z,28.23
2018-07-16T09:51:07.528Z,28.79
2018-07-16T09:53:37.201Z,29.38
2018-07-16T09:56:06.066Z,29.86
2018-07-16T09:58:34.644Z,30.52
2018-07-16T10:01:08.466Z,30.48
2018-07-16T10:03:36.975Z,30.56
2018-07-16T10:06:05.997Z,30.93
2018-07-16T10:08:34.515Z,30.95
2018-07-16T10:11:02.929Z,30.80
2018-07-16T10:13:31.584Z,31.75
2018-07-16T10:16:00.087Z,32.31
2018-07-16T10:18:28.613Z,32.64
2018-07-16T10:20:57.095Z,32.86
2018-07-16T10:23:25.555Z,32.85
2018-07-16T10:25:58.473Z,33.31
2018-07-16T10:28:27.067Z,33.41
2018-07-16T10:30:55.566Z,33.48
2018-07-16T10:33:24.083Z,33.49
2018-07-16T10:35:52.697Z,33.96
2018-07-16T10:38:21.956Z,34.14
2018-07-16T10:40:50.911Z,34.60
2018-07-16T10:43:19.603Z,35.16
2018-07-16T10:45:48.171Z,35.43
2018-07-16T10:48:16.792Z,35.68
2018-07-16T10:50:45.703Z,34.99
2018-07-16T10:53:14.290Z,35.08
2018-07-16T10:55:42.834Z,35.44
2018-07-16T10:58:11.374Z,35.00
2018-07-16T11:00:39.928Z,35.65
2018-07-16T11:03:08.558Z,35.48
2018-07-16T11:05:37.033Z,35.49
2018-07-16T11:08:09.812Z,36.60
2018-07-16T11:10:38.351Z,36.54
2018-07-16T11:13:06.902Z,36.46
2018-07-16T11:15:35.443Z,37.05
2018-07-16T11:18:03.947Z,37.23
2018-07-16T11:20:32.407Z,37.52
2018-07-16T11:23:00.927Z,37.26
2018-07-16T11:25:29.613Z,37.85
2018-07-16T11:27:58.158Z,37.90
2018-07-16T12:16:19.619Z,41.83
2018-07-16T12:18:48.043Z,42.09
2018-07-16T12:21:16.595Z,41.99
2018-07-16T12:23:45.151Z,41.76
2018-07-16T12:26:13.614Z,42.25
2018-07-16T12:28:42.224Z,42.12
2018-07-16T12:31:10.703Z,42.29
2018-07-16T12:33:39.214Z,42.37
2018-07-16T12:36:07.750Z,42.31
2018-07-16T12:38:36.203Z,42.59
2018-07-16T12:41:04.729Z,41.67
2018-07-16T12:43:33.159Z,42.18
2018-07-16T12:46:01.849Z,43.77
2018-07-16T12:48:30.546Z,43.21
2018-07-16T12:50:59.204Z,43.49
2018-07-16T12:53:27.703Z,43.80
2018-07-16T12:55:56.229Z,43.91
2018-07-16T12:58:24.882Z,44.09
2018-07-16T13:00:53.371Z,43.83
2018-07-16T13:03:21.867Z,43.68
2018-07-16T13:05:50.377Z,44.11
2018-07-16T13:08:18.943Z,44.25
2018-07-16T13:10:47.484Z,44.99
2018-07-16T13:13:15.978Z,44.95
2018-07-16T13:15:44.641Z,44.65
2018-07-16T13:18:13.180Z,44.35
2018-07-16T13:20:41.773Z,45.10
2018-07-16T13:23:10.212Z,45.59
2018-07-16T13:25:38.783Z,45.50
2018-07-16T13:28:07.341Z,45.09
2018-07-16T13:30:35.875Z,45.37
2018-07-16T13:33:04.338Z,46.74
2018-07-16T13:35:32.882Z,45.65
2018-07-16T13:38:01.462Z,45.91
2018-07-16T13:40:30.161Z,45.29
2018-07-16T13:42:58.726Z,46.24
2018-07-16T13:45:27.202Z,44.74
2018-07-16T13:47:55.680Z,45.36
2018-07-16T13:50:24.141Z,47.04
2018-07-16T13:52:52.735Z,46.70
2018-07-16T13:55:21.275Z,47.51
2018-07-16T13:57:49.858Z,47.71
2018-07-16T14:00:18.375Z,46.88
2018-07-16T14:02:46.862Z,46.00
2018-07-16T14:05:15.414Z,46.30
2018-07-16T14:07:44.021Z,47.12
2018-07-16T14:10:12.640Z,47.47
2018-07-16T14:12:41.444Z,47.32
2018-07-16T14:15:10.203Z,48.06
2018-07-16T14:17:38.665Z,47.06
2018-07-16T14:20:07.148Z,47.54
2018-07-16T14:22:35.619Z,46.59
2018-07-16T14:25:04.268Z,46.17
2018-07-16T14:27:33.719Z,46.09
2018-07-16T14:30:02.537Z,47.11
2018-07-16T14:32:31.033Z,47.10
2018-07-16T14:34:59.553Z,46.52
2018-07-16T14:37:28.176Z,45.78
2018-07-16T14:39:56.870Z,45.38
2018-07-16T14:42:25.464Z,45.50
2018-07-16T14:44:53.985Z,45.50
2018-07-16T14:47:22.592Z,46.22
2018-07-16T14:49:51.206Z,44.81
2018-07-16T14:52:19.815Z,45.29
2018-07-16T14:54:48.315Z,44.98
2018-07-16T14:57:16.870Z,45.44
2018-07-16T14:59:45.515Z,45.81
2018-07-16T15:02:14.024Z,44.65
2018-07-16T15:04:42.483Z,43.90
2018-07-16T15:07:11.071Z,43.38
2018-07-16T15:09:39.544Z,44.34
2018-07-16T15:12:08.024Z,44.21
2018-07-16T15:14:36.511Z,44.04
2018-07-16T15:17:05.158Z,43.35
2018-07-16T15:19:33.711Z,45.02
2018-07-16T15:22:02.275Z,44.73
2018-07-16T15:24:30.713Z,43.81
2018-07-16T15:26:59.278Z,43.55
2018-07-16T15:29:27.787Z,43.60
2018-07-16T15:31:56.435Z,45.06
2018-07-16T15:34:24.939Z,46.58
2018-07-16T15:36:53.506Z,46.62
2018-07-16T15:39:22.042Z,46.61
2018-07-16T15:41:50.524Z,45.61
2018-07-16T15:44:19.104Z,44.83
2018-07-16T15:46:47.710Z,45.66
2018-07-16T15:49:16.146Z,45.50
2018-07-16T15:51:44.744Z,45.60
2018-07-16T15:54:13.318Z,45.87
2018-07-16T15:56:42.083Z,44.13
2018-07-16T15:59:10.599Z,45.28
2018-07-16T16:01:39.065Z,45.34
2018-07-16T16:04:07.574Z,44.16
2018-07-16T16:06:36.100Z,43.17
2018-07-16T16:09:06.949Z,43.68
2018-07-16T16:11:35.495Z,42.69
2018-07-16T16:14:04.092Z,43.76
2018-07-16T16:16:33.056Z,45.61
2018-07-16T16:19:01.772Z,45.25
2018-07-16T16:21:30.752Z,44.67
2018-07-16T16:23:59.388Z,44.74
2018-07-16T16:26:28.013Z,45.28
2018-07-16T16:28:56.501Z,44.94
2018-07-16T16:31:25.155Z,42.20
2018-07-16T16:33:53.659Z,41.32
2018-07-16T16:36:22.159Z,42.80
2018-07-16T16:38:50.880Z,42.93
2018-07-16T16:41:19.852Z,43.39
2018-07-16T16:43:48.575Z,44.08
2018-07-16T16:46:17.448Z,44.60
2018-07-16T16:48:46.019Z,43.95
2018-07-16T16:51:14.572Z,41.94
2018-07-16T16:53:43.094Z,41.29
2018-07-16T16:56:11.672Z,43.64
2018-07-16T16:58:40.301Z,44.19
2018-07-16T17:01:08.789Z,43.44
2018-07-16T17:03:37.307Z,44.47
2018-07-16T17:06:05.942Z,44.37
2018-07-16T17:08:34.634Z,43.36
2018-07-16T17:11:03.103Z,43.31
2018-07-16T17:13:31.823Z,42.05
2018-07-16T17:16:00.452Z,41.57
2018-07-16T17:18:29.361Z,41.31
2018-07-16T17:20:57.883Z,40.35
2018-07-16T17:23:26.514Z,39.03
2018-07-16T17:25:55.040Z,37.49
2018-07-16T17:28:23.550Z,37.92
2018-07-16T17:30:52.174Z,35.77
2018-07-16T17:33:20.783Z,33.32
2018-07-16T17:35:49.289Z,30.63
2018-07-16T17:38:17.730Z,28.84
2018-07-16T17:40:46.291Z,28.12
2018-07-16T17:43:14.911Z,27.94
2018-07-16T17:45:43.614Z,28.80
2018-07-16T17:48:12.288Z,29.68
2018-07-16T17:50:40.852Z,31.29
2018-07-16T17:53:09.501Z,32.59
2018-07-16T17:55:38.027Z,31.98
2018-07-16T17:58:06.654Z,30.79
2018-07-16T18:00:35.203Z,30.93
2018-07-16T18:03:03.690Z,30.90
2018-07-16T18:05:32.192Z,30.27
2018-07-16T18:08:00.726Z,29.95
2018-07-16T18:10:29.452Z,29.45
2018-07-16T18:12:57.925Z,29.06
2018-07-16T18:15:26.460Z,28.78
2018-07-16T18:17:54.988Z,28.61
2018-07-16T18:20:23.494Z,28.58
2018-07-16T18:22:52.052Z,28.41
2018-07-16T18:25:20.618Z,28.21
2018-07-16T18:27:49.245Z,28.08
2018-07-16T18:30:17.822Z,27.96
2018-07-16T18:32:46.680Z,27.79
2018-07-16T18:35:15.147Z,27.64
2018-07-16T18:37:43.896Z,27.52
2018-07-16T18:40:12.661Z,27.38
2018-07-16T18:42:41.233Z,27.24
2018-07-16T18:45:09.736Z,27.11
2018-07-16T18:47:38.283Z,26.96
2018-07-16T18:50:08.131Z,26.81
2018-07-16T18:52:36.579Z,26.67
2018-07-16T18:55:05.740Z,26.52
2018-07-16T18:57:34.399Z,26.41
2018-07-16T19:00:03.047Z,26.28
2018-07-16T19:02:31.732Z,26.17
2018-07-16T19:05:00.235Z,26.08
2018-07-16T19:07:28.836Z,25.96
2018-07-16T19:09:58.332Z,25.81
2018-07-16T19:12:26.868Z,25.74
2018-07-16T19:14:55.443Z,25.68
2018-07-16T19:17:24.926Z,25.53
2018-07-16T19:19:53.500Z,25.38
2018-07-16T19:22:22.093Z,25.21
2018-07-16T19:24:50.680Z,25.10
2018-07-16T19:27:19.294Z,25.07
2018-07-16T19:29:47.946Z,24.92
2018-07-16T19:32:16.638Z,24.86
2018-07-16T19:34:45.307Z,24.74
2018-07-16T19:37:13.918Z,24.62
2018-07-16T19:39:42.568Z,24.48
2018-07-16T19:42:11.054Z,24.39
2018-07-16T19:44:39.507Z,24.33
2018-07-16T19:47:08.427Z,24.27
2018-07-16T19:49:37.223Z,24.30
2018-07-16T19:52:05.845Z,24.17
2018-07-16T19:54:34.454Z,24.09
2018-07-16T19:57:03.212Z,24.02
2018-07-16T19:59:31.570Z,23.94
2018-07-16T20:02:00.057Z,23.87
2018-07-16T20:04:28.605Z,23.89
2018-07-16T20:06:57.820Z,23.94
2018-07-16T20:09:27.331Z,23.98
2018-07-16T20:11:55.790Z,23.94
2018-07-16T20:14:24.930Z,23.96
2018-07-16T20:16:53.426Z,23.98
2018-07-16T20:19:21.887Z,24.00
2018-07-16T20:21:50.565Z,23.91
2018-07-16T20:24:19.091Z,23.83
2018-07-16T20:26:47.842Z,23.82
2018-07-16T20:29:16.342Z,23.79
2018-07-16T20:31:44.883Z,23.73
2018-07-16T20:34:13.429Z,23.66
2018-07-16T20:36:41.904Z,23.58
2018-07-16T20:39:10.449Z,23.56
2018-07-16T20:41:38.989Z,23.54
2018-07-16T20:44:07.558Z,23.51
2018-07-16T20:46:36.560Z,23.46
2018-07-16T20:49:05.107Z,23.56
2018-07-16T20:51:34.450Z,23.59
2018-07-16T20:54:02.956Z,23.56
2018-07-16T20:56:31.676Z,23.48
2018-07-16T20:59:00.655Z,23.39
2018-07-16T21:01:29.292Z,23.37
2018-07-16T21:03:57.779Z,23.35
2018-07-16T21:06:26.430Z,23.21
2018-07-16T21:08:54.991Z,23.09
2018-07-16T21:11:23.560Z,23.01
2018-07-16T21:13:52.130Z,22.94
2018-07-16T21:16:20.792Z,22.80
2018-07-16T21:18:49.329Z,22.65
2018-07-16T21:21:17.865Z,22.51
2018-07-16T21:23:47.101Z,22.38
2018-07-16T21:26:15.640Z,22.24
2018-07-16T21:28:44.204Z,22.15
2018-07-16T21:31:12.709Z,22.06
2018-07-16T21:33:41.673Z,21.98
2018-07-16T21:36:10.187Z,21.92
2018-07-16T21:38:38.928Z,21.84
2018-07-16T21:41:07.959Z,21.73
2018-07-16T21:43:36.479Z,21.73
2018-07-16T21:46:05.455Z,21.63
2018-07-16T21:48:34.052Z,21.49
2018-07-16T21:51:02.658Z,21.42
2018-07-16T21:53:31.333Z,21.37
2018-07-16T21:55:59.850Z,21.30
2018-07-16T21:58:28.535Z,21.26
2018-07-16T22:00:57.074Z,21.23
2018-07-16T22:03:25.610Z,21.22
2018-07-16T22:05:54.248Z,21.17
2018-07-16T22:08:22.776Z,21.04
2018-07-16T22:10:51.293Z,20.98
2018-07-16T22:13:19.915Z,20.93
2018-07-16T22:15:48.460Z,20.84
2018-07-16T22:18:17.047Z,20.78
2018-07-16T22:20:45.634Z,20.74
2018-07-16T22:23:14.248Z,20.67
2018-07-16T22:25:42.811Z,20.61
2018-07-16T22:28:11.316Z,20.54
2018-07-16T22:30:39.811Z,20.48
2018-07-16T22:33:08.379Z,20.48
2018-07-16T22:35:36.904Z,20.45
2018-07-16T22:38:05.567Z,20.37
2018-07-16T22:40:34.040Z,20.27
2018-07-16T22:43:02.551Z,20.17
2018-07-16T22:45:31.205Z,20.13
2018-07-16T22:47:59.754Z,20.10
2018-07-16T22:50:28.394Z,20.14
2018-07-16T22:52:56.882Z,20.13
2018-07-16T22:55:25.438Z,20.09
2018-07-16T22:57:53.946Z,20.12
2018-07-16T23:00:22.419Z,20.15
2018-07-16T23:02:50.926Z,20.24
2018-07-16T23:05:19.563Z,20.12
2018-07-16T23:07:48.052Z,19.98
2018-07-16T23:10:16.514Z,19.92
2018-07-16T23:12:45.130Z,19.88
2018-07-16T23:15:13.588Z,19.89
2018-07-16T23:17:42.095Z,19.85
2018-07-16T23:20:10.670Z,19.86
2018-07-16T23:22:49.215Z,19.81
2018-07-16T23:25:17.767Z,19.71
2018-07-16T23:27:46.591Z,19.67
2018-07-16T23:30:15.251Z,19.56
2018-07-16T23:32:44.092Z,19.50
2018-07-16T23:35:13.248Z,19.45
2018-07-16T23:37:41.943Z,19.36
2018-07-16T23:40:10.451Z,19.29
2018-07-16T23:42:38.959Z,19.27
2018-07-16T23:45:07.525Z,19.21
2018-07-16T23:47:36.083Z,19.19
2018-07-16T23:50:04.958Z,19.14
2018-07-16T23:52:33.473Z,19.10
2018-07-16T23:55:06.074Z,19.05
2018-07-16T23:57:34.562Z,19.10
